createdAt,value
2014-08-08T06:10:20.923Z,397
2014-08-08T06:10:39.126Z,399
2014-08-08T06:10:57.315Z,403
2014-08-08T06:11:15.503Z,405
2014-08-08T06:11:33.706Z,405
2014-08-08T06:11:51.896Z,405
2014-08-08T06:12:10.083Z,406
2014-08-08T06:12:28.271Z,412
2014-08-08T06:12:46.474Z,414
2014-08-08T06:13:04.663Z,413
2014-08-08T06:13:22.851Z,417
2014-08-08T06:13:41.054Z,419
2014-08-08T06:13:59.243Z,419
2014-08-08T06:14:17.431Z,420
2014-08-08T06:14:35.634Z,417
2014-08-08T06:14:53.823Z,422
2014-08-08T06:15:12.011Z,423
2014-08-08T06:15:30.214Z,425
2014-08-08T06:15:48.402Z,431
2014-08-08T06:16:06.591Z,773
2014-08-08T06:16:24.794Z,773
2014-08-08T06:16:42.982Z,773
2014-08-08T06:17:01.171Z,773
2014-08-08T06:17:19.374Z,773
2014-08-08T06:17:37.562Z,773
2014-08-08T06:17:55.751Z,773
2014-08-08T06:18:13.939Z,773
2014-08-08T06:18:32.126Z,773
2014-08-08T06:18:50.314Z,290
2014-08-08T06:19:08.519Z,278
2014-08-08T06:19:26.706Z,277
2014-08-08T06:19:44.894Z,768
2014-08-08T06:20:03.098Z,773
2014-08-08T06:20:21.286Z,773
2014-08-08T06:20:39.489Z,773
2014-08-08T06:20:57.678Z,773
2014-08-08T06:21:15.881Z,773
2014-08-08T06:21:34.069Z,773
2014-08-08T06:21:52.256Z,773
2014-08-08T06:22:10.461Z,773
2014-08-08T06:22:28.649Z,773
2014-08-08T06:22:46.852Z,773
2014-08-08T06:23:05.042Z,773
2014-08-08T06:23:23.229Z,773
2014-08-08T06:23:41.432Z,773
2014-08-08T06:23:59.622Z,773
2014-08-08T06:24:17.825Z,773
2014-08-08T06:24:36.012Z,773
2014-08-08T06:24:54.216Z,773
2014-08-08T06:25:12.404Z,773
2014-08-08T06:25:30.591Z,773
2014-08-08T06:25:48.795Z,773
2014-08-08T06:26:06.984Z,773
2014-08-08T06:26:25.187Z,773
2014-08-08T06:26:43.375Z,773
2014-08-08T06:27:01.581Z,773
2014-08-08T06:27:19.768Z,773
2014-08-08T06:27:37.971Z,773
2014-08-08T06:27:56.161Z,773
2014-08-08T06:28:14.364Z,773
2014-08-08T06:28:32.552Z,615
2014-08-08T06:28:50.755Z,616
2014-08-08T06:29:08.975Z,617
2014-08-08T06:29:27.163Z,616
2014-08-08T06:29:45.350Z,412
2014-08-08T06:30:03.555Z,614
2014-08-08T06:30:21.758Z,616
2014-08-08T06:30:39.945Z,617
2014-08-08T06:30:58.151Z,574
2014-08-08T06:31:16.339Z,521
2014-08-08T06:31:34.526Z,622
2014-08-08T06:31:52.729Z,623
2014-08-08T06:32:10.918Z,626
2014-08-08T06:32:29.121Z,627
2014-08-08T06:32:47.309Z,627
2014-08-08T06:33:05.514Z,628
2014-08-08T06:33:23.701Z,631
2014-08-08T06:33:41.904Z,629
2014-08-08T06:34:00.094Z,631
2014-08-08T06:34:18.281Z,630
2014-08-08T06:34:36.719Z,629
2014-08-08T06:34:54.674Z,628
2014-08-08T06:35:12.877Z,608
2014-08-08T06:35:31.065Z,487
2014-08-08T06:35:49.268Z,528
2014-08-08T06:36:07.457Z,532
2014-08-08T06:36:25.660Z,531
2014-08-08T06:36:43.848Z,530
2014-08-08T06:37:02.053Z,479
2014-08-08T06:37:20.240Z,518
2014-08-08T06:37:38.444Z,513
2014-08-08T06:37:56.633Z,516
2014-08-08T06:38:14.821Z,517
2014-08-08T06:38:33.024Z,517
2014-08-08T06:38:51.211Z,517
2014-08-08T06:39:09.416Z,515
2014-08-08T06:39:27.604Z,514
2014-08-08T06:39:45.807Z,511
2014-08-08T06:40:03.996Z,512
2014-08-08T06:40:22.200Z,512
2014-08-08T06:40:40.387Z,512
2014-08-08T06:40:58.591Z,513
2014-08-08T06:41:16.779Z,510
2014-08-08T06:41:34.966Z,509
2014-08-08T06:41:53.169Z,507
2014-08-08T06:42:11.375Z,506
2014-08-08T06:42:29.563Z,506
2014-08-08T06:42:47.750Z,505
2014-08-08T06:43:05.955Z,504
2014-08-08T06:43:24.142Z,501
2014-08-08T06:43:42.345Z,501
2014-08-08T06:44:00.535Z,500
2014-08-08T06:44:18.738Z,491
2014-08-08T06:44:36.925Z,494
2014-08-08T06:44:55.128Z,493
2014-08-08T06:45:13.318Z,491
2014-08-08T06:45:31.521Z,485
2014-08-08T06:45:49.709Z,488
2014-08-08T06:46:07.915Z,484
2014-08-08T06:46:26.102Z,486
2014-08-08T06:46:44.290Z,485
